createdAt,value
2023-05-07T00:00:35.604Z,22.80
2023-05-07T00:03:39.489Z,18.30
2023-05-07T00:06:42.514Z,16.02
2023-05-07T00:09:45.524Z,13.85
2023-05-07T00:12:48.502Z,13.38
2023-05-07T00:15:51.332Z,13.15
2023-05-07T00:18:54.124Z,11.70
2023-05-07T00:21:57.396Z,12.73
2023-05-07T00:25:00.707Z,12.20
2023-05-07T00:28:05.102Z,14.32
2023-05-07T00:31:07.786Z,13.45
2023-05-07T00:34:10.735Z,16.50
2023-05-07T00:37:13.484Z,15.13
2023-05-07T00:40:16.144Z,15.00
2023-05-07T00:43:18.912Z,15.95
2023-05-07T00:46:22.722Z,13.02
2023-05-07T00:49:39.351Z,15.07
2023-05-07T00:52:43.337Z,14.18
2023-05-07T00:55:46.300Z,15.88
2023-05-07T00:58:49.811Z,14.23
2023-05-07T01:01:53.377Z,11.95
2023-05-07T01:04:57.010Z,15.80
2023-05-07T01:08:00.862Z,15.93
2023-05-07T01:11:03.833Z,15.43
2023-05-07T01:14:06.837Z,15.55
2023-05-07T01:17:09.791Z,18.77
2023-05-07T01:20:13.647Z,17.92
2023-05-07T01:23:18.907Z,18.70
2023-05-07T01:26:23.605Z,17.27
2023-05-07T01:29:26.803Z,17.98
2023-05-07T01:32:53.007Z,17.20
2023-05-07T01:35:56.112Z,19.05
2023-05-07T01:39:00.052Z,17.20
2023-05-07T01:42:03.010Z,18.20
2023-05-07T01:45:06.805Z,19.98
2023-05-07T01:48:11.535Z,17.70
2023-05-07T01:51:14.409Z,19.85
2023-05-07T01:54:17.973Z,18.48
2023-05-07T01:57:20.733Z,26.88
2023-05-07T02:00:23.763Z,21.55
2023-05-07T02:03:27.354Z,18.48
2023-05-07T02:06:39.134Z,20.83
2023-05-07T02:09:43.717Z,15.82
2023-05-07T02:12:48.308Z,21.02
2023-05-07T02:15:51.895Z,20.70
2023-05-07T02:18:55.150Z,19.70
2023-05-07T02:21:57.985Z,20.38
2023-05-07T02:25:06.216Z,20.13
2023-05-07T02:28:09.044Z,26.80
2023-05-07T02:31:19.701Z,21.92
2023-05-07T02:34:22.711Z,24.98
2023-05-07T02:37:25.550Z,20.95
2023-05-07T02:40:28.685Z,20.23
2023-05-07T02:43:31.464Z,18.85
2023-05-07T02:46:34.569Z,17.00
2023-05-07T02:49:42.125Z,18.15
2023-05-07T02:52:45.336Z,19.05
2023-05-07T02:55:48.065Z,26.00
2023-05-07T02:58:50.690Z,17.15
2023-05-07T03:01:55.197Z,18.05
2023-05-07T03:04:57.978Z,27.30
2023-05-07T03:08:00.868Z,23.30
2023-05-07T03:11:03.852Z,24.15
2023-05-07T03:14:06.650Z,25.58
2023-05-07T03:17:09.405Z,24.85
2023-05-07T03:20:13.101Z,26.63
2023-05-07T03:23:17.402Z,24.02
2023-05-07T03:26:20.082Z,22.42
2023-05-07T03:29:22.887Z,23.80
2023-05-07T03:32:26.289Z,28.20
2023-05-07T03:35:29.447Z,27.20
2023-05-07T03:38:32.552Z,23.83
2023-05-07T03:41:35.486Z,22.27
2023-05-07T03:44:38.440Z,21.20
2023-05-07T03:47:41.391Z,21.88
2023-05-07T03:50:45.956Z,29.05
2023-05-07T03:53:49.254Z,23.63
2023-05-07T03:56:52.308Z,24.80
2023-05-07T03:59:55.256Z,23.90
2023-05-07T04:02:58.093Z,22.23
2023-05-07T04:06:03.592Z,20.40
2023-05-07T04:09:09.348Z,22.92
2023-05-07T04:12:14.670Z,22.60
2023-05-07T04:15:17.632Z,20.58
2023-05-07T04:18:21.300Z,20.77
2023-05-07T04:21:25.569Z,17.75
2023-05-07T04:24:28.390Z,20.70
2023-05-07T04:27:31.291Z,19.00
2023-05-07T04:30:33.979Z,19.17
2023-05-07T04:33:39.369Z,21.17
2023-05-07T04:36:44.737Z,18.02
2023-05-07T04:39:50.228Z,21.80
2023-05-07T04:42:54.578Z,20.35
2023-05-07T04:45:58.138Z,19.23
2023-05-07T04:49:03.354Z,21.08
2023-05-07T04:52:06.353Z,20.25
2023-05-07T04:55:10.133Z,18.02
2023-05-07T04:58:15.540Z,24.27
2023-05-07T05:01:19.934Z,23.88
2023-05-07T05:04:25.660Z,21.70
2023-05-07T05:07:28.860Z,17.83
2023-05-07T05:10:31.931Z,20.13
2023-05-07T05:13:34.716Z,18.27
2023-05-07T05:16:43.537Z,17.95
2023-05-07T05:19:47.004Z,21.85
2023-05-07T05:22:50.168Z,18.80
2023-05-07T05:26:00.134Z,20.02
2023-05-07T05:29:06.361Z,19.65
2023-05-07T05:32:09.208Z,17.98
2023-05-07T05:35:12.776Z,18.48
2023-05-07T05:38:17.010Z,15.65
2023-05-07T05:41:19.824Z,15.95
2023-05-07T05:44:22.886Z,20.45
2023-05-07T05:47:25.904Z,19.42
2023-05-07T05:50:31.717Z,16.70
2023-05-07T05:53:35.741Z,17.17
2023-05-07T05:56:39.335Z,16.15
2023-05-07T05:59:42.426Z,18.23
2023-05-07T06:02:45.408Z,18.35
2023-05-07T06:05:51.658Z,15.25
2023-05-07T06:08:59.580Z,14.23
2023-05-07T06:12:10.038Z,13.88
2023-05-07T06:15:13.402Z,13.85
2023-05-07T06:18:17.555Z,13.07
2023-05-07T06:21:20.959Z,11.75
2023-05-07T06:24:25.287Z,11.82
2023-05-07T06:27:29.407Z,12.32
2023-05-07T06:30:33.074Z,12.98
2023-05-07T06:33:36.411Z,10.25
2023-05-07T06:36:39.647Z,13.07
2023-05-07T06:39:51.330Z,10.35
2023-05-07T06:42:54.510Z,8.68
2023-05-07T06:46:20.130Z,9.35
2023-05-07T06:49:23.597Z,11.10
2023-05-07T06:52:28.342Z,11.52
2023-05-07T06:55:32.316Z,9.57
2023-05-07T06:58:35.837Z,8.60
2023-05-07T07:01:39.190Z,9.63
2023-05-07T07:04:43.962Z,8.38
2023-05-07T07:07:54.031Z,8.35
2023-05-07T07:10:59.242Z,9.23
2023-05-07T07:14:02.607Z,9.52
2023-05-07T07:17:08.400Z,11.70
2023-05-07T07:20:12.445Z,8.52
2023-05-07T07:23:17.051Z,10.20
2023-05-07T07:26:19.892Z,8.80
2023-05-07T07:29:22.887Z,8.20
2023-05-07T07:32:26.058Z,7.45
2023-05-07T07:35:31.598Z,8.15
2023-05-07T07:38:35.482Z,7.53
2023-05-07T07:41:39.138Z,7.03
2023-05-07T07:44:43.051Z,10.90
2023-05-07T07:47:48.786Z,8.10
2023-05-07T07:50:55.322Z,8.98
2023-05-07T07:53:59.398Z,8.93
2023-05-07T07:57:03.283Z,8.75
2023-05-07T08:00:10.223Z,8.57
2023-05-07T08:03:21.207Z,6.70
2023-05-07T08:06:28.657Z,10.10
2023-05-07T08:09:32.142Z,9.35
2023-05-07T08:12:36.969Z,9.45
2023-05-07T08:15:40.100Z,8.48
2023-05-07T08:18:43.628Z,13.93
2023-05-07T08:21:49.034Z,7.18
2023-05-07T08:24:54.957Z,9.02
2023-05-07T08:27:58.526Z,8.05
2023-05-07T08:31:02.422Z,6.53
2023-05-07T08:34:10.412Z,6.72
2023-05-07T08:37:17.045Z,7.93
2023-05-07T08:40:23.565Z,6.18
2023-05-07T08:43:29.119Z,6.97
2023-05-07T08:46:33.698Z,7.72
2023-05-07T08:49:36.978Z,7.10
2023-05-07T08:52:42.162Z,5.65
2023-05-07T08:55:45.370Z,6.38
2023-05-07T08:58:49.465Z,6.45
2023-05-07T09:01:52.908Z,10.38
2023-05-07T09:04:56.798Z,6.65
2023-05-07T09:08:04.724Z,6.13
2023-05-07T09:11:07.721Z,5.47
2023-05-07T09:14:10.779Z,5.18
2023-05-07T09:17:18.462Z,5.35
2023-05-07T09:20:21.890Z,6.55
2023-05-07T09:23:25.308Z,6.22
2023-05-07T09:26:29.507Z,5.07
2023-05-07T09:29:36.818Z,4.90
2023-05-07T09:32:41.690Z,3.85
2023-05-07T09:35:53.224Z,3.72
2023-05-07T09:38:58.163Z,6.05
2023-05-07T09:42:02.768Z,3.00
2023-05-07T09:45:10.500Z,4.43
2023-05-07T09:48:18.743Z,7.50
2023-05-07T09:51:51.727Z,4.82
2023-05-07T09:55:00.581Z,4.50
2023-05-07T09:58:06.986Z,3.78
2023-05-07T10:01:12.177Z,3.72
2023-05-07T10:04:16.824Z,4.57
2023-05-07T10:07:22.326Z,4.45
2023-05-07T10:10:29.479Z,3.92
2023-05-07T10:13:34.350Z,3.70
2023-05-07T10:16:38.132Z,4.20
2023-05-07T10:19:46.512Z,2.83
2023-05-07T10:22:50.833Z,5.35
2023-05-07T10:26:01.367Z,3.08
2023-05-07T10:29:26.841Z,3.35
2023-05-07T10:32:47.472Z,2.78
2023-05-07T10:36:00.662Z,3.72
2023-05-07T10:42:14.598Z,2.88
2023-05-07T10:45:24.046Z,2.42
2023-05-07T10:48:30.728Z,2.65
2023-05-07T10:51:40.253Z,2.20
2023-05-07T10:55:21.208Z,3.58
2023-05-07T10:58:36.228Z,3.13
2023-05-07T11:02:00.271Z,3.05
2023-05-07T11:05:24.077Z,2.05
2023-05-07T11:09:00.858Z,2.70
2023-05-07T11:12:18.331Z,2.83
2023-05-07T11:15:40.027Z,4.22
2023-05-07T11:18:56.948Z,3.40
2023-05-07T11:22:09.805Z,3.08
2023-05-07T11:25:21.623Z,2.13
2023-05-07T11:28:32.412Z,3.00
2023-05-07T11:31:39.927Z,4.03
2023-05-07T11:34:43.616Z,2.55
2023-05-07T11:37:47.167Z,2.03
2023-05-07T11:40:55.826Z,3.40
2023-05-07T11:44:00.005Z,2.97
2023-05-07T11:47:03.534Z,2.78
2023-05-07T11:50:09.128Z,2.95
2023-05-07T11:53:14.267Z,3.95
2023-05-07T11:56:18.559Z,2.97
2023-05-07T11:59:21.484Z,3.45
2023-05-07T12:02:26.449Z,3.42
2023-05-07T12:05:30.640Z,3.97
2023-05-07T12:08:34.269Z,2.97
2023-05-07T12:11:41.276Z,3.28
2023-05-07T12:14:45.659Z,3.90
2023-05-07T12:17:48.662Z,7.22
2023-05-07T12:20:52.239Z,4.80
2023-05-07T12:23:55.365Z,5.20
2023-05-07T12:26:58.388Z,7.22
2023-05-07T12:30:03.527Z,6.15
2023-05-07T12:33:06.482Z,5.70
2023-05-07T12:36:09.724Z,7.32
2023-05-07T12:39:12.616Z,5.70
2023-05-07T12:42:21.239Z,8.65
2023-05-07T12:45:24.309Z,6.60
2023-05-07T12:48:29.819Z,6.75
2023-05-07T12:51:32.687Z,9.30
2023-05-07T12:54:39.282Z,8.38
2023-05-07T12:57:43.787Z,5.72
2023-05-07T13:00:49.659Z,7.70
2023-05-07T13:03:52.897Z,7.40
2023-05-07T13:06:56.012Z,6.40
2023-05-07T13:09:59.090Z,8.02
2023-05-07T13:13:02.030Z,6.03
2023-05-07T13:16:06.581Z,6.75
2023-05-07T13:19:09.381Z,5.55
2023-05-07T13:22:12.393Z,6.10
2023-05-07T13:25:15.546Z,4.05
2023-05-07T13:28:19.085Z,4.38
2023-05-07T13:31:22.505Z,4.45
2023-05-07T13:34:25.245Z,4.95
2023-05-07T13:37:28.456Z,10.18
2023-05-07T13:40:31.760Z,5.25
2023-05-07T13:43:34.984Z,4.65
2023-05-07T13:46:37.849Z,4.78
2023-05-07T13:49:40.542Z,4.50
2023-05-07T13:52:46.945Z,3.90
2023-05-07T13:55:50.125Z,5.53
2023-05-07T13:59:00.071Z,4.60
2023-05-07T14:02:03.892Z,6.25
2023-05-07T14:05:06.872Z,3.58
2023-05-07T14:08:09.773Z,4.38
2023-05-07T14:11:12.841Z,4.60
2023-05-07T14:14:18.079Z,4.43
2023-05-07T14:17:21.547Z,4.55
2023-05-07T14:20:24.385Z,4.78
2023-05-07T14:23:27.978Z,4.72
2023-05-07T14:26:31.049Z,5.38
2023-05-07T14:29:34.357Z,3.47
2023-05-07T14:32:37.482Z,5.18
2023-05-07T14:35:40.714Z,3.67
2023-05-07T14:38:43.594Z,4.28
2023-05-07T14:41:46.395Z,4.25
2023-05-07T14:44:50.229Z,3.58
2023-05-07T14:47:53.362Z,5.05
2023-05-07T14:50:57.418Z,3.83
2023-05-07T14:54:00.565Z,5.53
2023-05-07T14:57:03.840Z,5.82
2023-05-07T15:00:08.353Z,3.85
2023-05-07T15:03:11.918Z,4.78
2023-05-07T15:06:17.931Z,4.43
2023-05-07T15:09:21.266Z,5.45
2023-05-07T15:12:24.312Z,5.30
2023-05-07T15:15:27.462Z,3.90
2023-05-07T15:21:37.887Z,5.32
2023-05-07T15:24:42.404Z,4.95
2023-05-07T15:27:45.378Z,7.22
2023-05-07T15:30:48.361Z,4.80
2023-05-07T15:33:53.335Z,5.43
2023-05-07T15:36:58.124Z,5.13
2023-05-07T15:40:03.502Z,4.82
2023-05-07T15:43:06.265Z,5.55
2023-05-07T15:46:09.065Z,8.90
2023-05-07T15:49:12.042Z,8.02
2023-05-07T15:52:16.316Z,7.32
2023-05-07T15:55:19.765Z,6.10
2023-05-07T15:58:22.933Z,6.50
2023-05-07T16:01:26.260Z,7.78
2023-05-07T16:04:29.120Z,11.00
2023-05-07T16:07:32.250Z,6.93
2023-05-07T16:10:35.116Z,6.72
2023-05-07T16:13:38.436Z,7.20
2023-05-07T16:16:41.443Z,6.93
2023-05-07T16:19:44.656Z,6.70
2023-05-07T16:22:47.439Z,6.18
2023-05-07T16:25:50.444Z,6.70
2023-05-07T16:28:53.475Z,6.53
2023-05-07T16:31:58.480Z,6.45
2023-05-07T16:35:01.503Z,8.57
2023-05-07T16:38:10.388Z,9.52
2023-05-07T16:41:13.991Z,6.85
2023-05-07T16:44:17.962Z,7.25
2023-05-07T16:47:21.714Z,6.93
2023-05-07T16:50:24.998Z,6.43
2023-05-07T16:53:28.090Z,6.93
2023-05-07T16:56:31.094Z,7.00
2023-05-07T16:59:34.100Z,5.57
2023-05-07T17:02:37.071Z,6.90
2023-05-07T17:05:40.396Z,7.05
2023-05-07T17:08:43.396Z,5.63
2023-05-07T17:11:46.445Z,7.72
2023-05-07T17:14:49.564Z,7.68
2023-05-07T17:17:52.722Z,5.50
2023-05-07T17:20:55.737Z,5.05
2023-05-07T17:23:58.460Z,6.00
2023-05-07T17:27:01.372Z,5.53
2023-05-07T17:30:04.564Z,5.10
2023-05-07T17:33:19.989Z,6.15
2023-05-07T17:36:23.982Z,5.97
2023-05-07T17:39:26.868Z,3.85
2023-05-07T17:42:30.222Z,4.32
2023-05-07T17:45:33.457Z,4.40
2023-05-07T17:48:36.203Z,4.28
2023-05-07T17:51:52.501Z,4.55
2023-05-07T17:57:59.229Z,5.07
2023-05-07T18:01:02.166Z,3.90
2023-05-07T18:04:05.274Z,4.43
2023-05-07T18:07:08.260Z,4.50
2023-05-07T18:10:11.910Z,4.78
2023-05-07T18:13:15.115Z,5.60
2023-05-07T18:16:19.576Z,5.32
2023-05-07T18:19:22.661Z,5.40
2023-05-07T18:22:25.421Z,7.15
2023-05-07T18:25:28.480Z,4.97
2023-05-07T18:28:31.394Z,5.53
2023-05-07T18:31:36.764Z,4.60
2023-05-07T18:34:40.782Z,4.97
2023-05-07T18:37:43.569Z,5.28
2023-05-07T18:40:47.840Z,6.43
2023-05-07T18:43:51.122Z,4.97
2023-05-07T18:46:53.894Z,6.07
2023-05-07T18:49:56.940Z,5.15
2023-05-07T18:53:00.131Z,5.05
2023-05-07T18:56:03.527Z,3.92
2023-05-07T18:59:06.486Z,6.10
2023-05-07T19:02:09.343Z,5.63
2023-05-07T19:05:12.413Z,8.30
2023-05-07T19:08:18.385Z,5.05
2023-05-07T19:11:22.171Z,5.57
2023-05-07T19:14:25.382Z,5.43
2023-05-07T19:17:28.407Z,5.35
2023-05-07T19:20:31.401Z,6.55
2023-05-07T19:23:34.835Z,5.82
2023-05-07T19:26:37.706Z,5.78
2023-05-07T19:29:41.130Z,5.35
2023-05-07T19:32:44.010Z,5.40
2023-05-07T19:35:46.963Z,5.95
2023-05-07T19:38:53.371Z,5.20
2023-05-07T19:41:56.688Z,4.80
2023-05-07T19:44:59.497Z,5.18
2023-05-07T19:48:04.855Z,7.25
2023-05-07T19:51:07.852Z,5.22
2023-05-07T19:54:11.091Z,5.95
2023-05-07T19:57:14.768Z,5.50
2023-05-07T20:00:23.714Z,5.57
2023-05-07T20:03:26.805Z,5.72
2023-05-07T20:06:29.830Z,6.25
2023-05-07T20:09:33.030Z,4.70
2023-05-07T20:12:36.057Z,5.38
2023-05-07T20:15:39.316Z,4.20
2023-05-07T20:18:42.237Z,5.90
2023-05-07T20:21:45.055Z,4.60
2023-05-07T20:24:48.043Z,6.07
2023-05-07T20:27:51.134Z,9.13
2023-05-07T20:30:54.303Z,4.18
2023-05-07T20:33:57.648Z,3.97
2023-05-07T20:37:00.671Z,5.03
2023-05-07T20:40:05.047Z,4.97
2023-05-07T20:43:08.419Z,4.85
2023-05-07T20:46:11.375Z,4.35
2023-05-07T20:49:14.274Z,7.30
2023-05-07T20:52:17.577Z,3.88
2023-05-07T20:55:20.514Z,4.20
2023-05-07T20:58:27.151Z,7.70
2023-05-07T21:01:30.049Z,5.50
2023-05-07T21:04:33.299Z,4.90
2023-05-07T21:07:36.325Z,5.97
2023-05-07T21:10:39.482Z,6.53
2023-05-07T21:13:42.448Z,4.95
2023-05-07T21:16:45.548Z,4.55
2023-05-07T21:19:50.138Z,5.55
2023-05-07T21:22:52.876Z,5.45
2023-05-07T21:25:55.632Z,4.78
2023-05-07T21:28:58.397Z,4.75
2023-05-07T21:32:01.196Z,5.40
2023-05-07T21:35:04.348Z,4.20
2023-05-07T21:38:07.270Z,4.97
2023-05-07T21:41:10.457Z,5.40
2023-05-07T21:44:13.402Z,5.20
2023-05-07T21:47:16.116Z,4.65
2023-05-07T21:50:19.577Z,5.00
2023-05-07T21:53:22.371Z,5.55
2023-05-07T21:56:25.439Z,8.38
2023-05-07T21:59:28.190Z,5.38
2023-05-07T22:02:31.045Z,4.47
2023-05-07T22:05:33.977Z,5.43
2023-05-07T22:08:36.752Z,5.45
2023-05-07T22:11:39.605Z,7.28
2023-05-07T22:14:42.455Z,5.53
2023-05-07T22:17:45.369Z,4.40
2023-05-07T22:20:51.659Z,4.72
2023-05-07T22:23:54.408Z,4.50
2023-05-07T22:26:57.157Z,5.13
2023-05-07T22:29:59.886Z,4.65
2023-05-07T22:33:02.658Z,4.60
2023-05-07T22:36:05.953Z,4.68
2023-05-07T22:39:10.305Z,4.93
2023-05-07T22:42:13.043Z,4.65
2023-05-07T22:45:16.094Z,7.97
2023-05-07T22:48:18.903Z,8.27
2023-05-07T22:51:21.923Z,4.57
2023-05-07T22:54:25.691Z,6.60
2023-05-07T22:57:28.472Z,4.93
2023-05-07T23:00:31.302Z,4.57
2023-05-07T23:03:34.233Z,4.03
2023-05-07T23:06:37.024Z,4.65
2023-05-07T23:09:40.092Z,4.47
2023-05-07T23:12:43.346Z,9.63
2023-05-07T23:15:46.607Z,4.60
2023-05-07T23:18:49.882Z,5.90
2023-05-07T23:21:53.669Z,4.35
2023-05-07T23:24:56.845Z,4.82
2023-05-07T23:27:59.496Z,3.75
2023-05-07T23:31:02.452Z,4.97
2023-05-07T23:34:05.303Z,5.18
2023-05-07T23:37:10.399Z,5.22
2023-05-07T23:40:13.467Z,5.43
2023-05-07T23:43:16.459Z,4.53
2023-05-07T23:46:20.099Z,5.20
2023-05-07T23:49:22.745Z,4.10
2023-05-07T23:52:25.514Z,4.07
2023-05-07T23:55:28.264Z,3.90
2023-05-07T23:58:31.210Z,4.32
